createdAt,value
2018-12-22T00:02:25.107Z,57.96
2018-12-22T00:04:57.201Z,58.23
2018-12-22T00:07:29.602Z,57.96
2018-12-22T00:10:02.012Z,57.81
2018-12-22T00:12:34.372Z,57.17
2018-12-22T00:15:08.558Z,57.15
2018-12-22T00:17:40.805Z,57.15
2018-12-22T00:20:13.234Z,57.32
2018-12-22T00:22:45.290Z,56.29
2018-12-22T00:25:17.483Z,56.24
2018-12-22T00:27:49.731Z,56.01
2018-12-22T00:30:24.478Z,55.72
2018-12-22T00:32:56.796Z,55.87
2018-12-22T00:35:26.820Z,55.66
2018-12-22T00:37:56.901Z,55.77
2018-12-22T00:40:27.223Z,55.38
2018-12-22T00:43:00.140Z,55.28
2018-12-22T00:45:32.199Z,55.35
2018-12-22T00:48:02.677Z,55.06
2018-12-22T00:50:37.393Z,54.71
2018-12-22T00:53:09.871Z,55.00
2018-12-22T00:55:42.295Z,54.52
2018-12-22T00:58:14.596Z,54.68
2018-12-22T01:00:46.748Z,54.60
2018-12-22T01:03:19.273Z,54.16
2018-12-22T01:05:51.534Z,54.27
2018-12-22T01:08:23.802Z,54.10
2018-12-22T01:10:53.851Z,54.49
2018-12-22T01:14:27.334Z,54.24
2018-12-22T01:16:59.553Z,54.39
2018-12-22T01:19:29.926Z,53.90
2018-12-22T01:22:02.355Z,53.49
2018-12-22T01:24:36.632Z,53.97
2018-12-22T01:27:08.229Z,53.31
2018-12-22T01:29:40.324Z,52.73
2018-12-22T01:32:14.810Z,53.25
2018-12-22T01:34:46.539Z,53.47
2018-12-22T01:37:21.060Z,53.42
2018-12-22T01:39:52.971Z,53.76
2018-12-22T01:42:23.224Z,53.96
2018-12-22T01:44:56.579Z,53.90
2018-12-22T01:47:28.932Z,54.32
2018-12-22T01:50:01.177Z,54.04
2018-12-22T01:52:33.548Z,54.08
2018-12-22T01:55:06.622Z,54.92
2018-12-22T01:57:38.408Z,55.14
2018-12-22T02:00:10.915Z,55.60
2018-12-22T02:02:42.790Z,55.49
2018-12-22T02:05:12.932Z,55.86
2018-12-22T02:07:44.867Z,56.27
2018-12-22T02:10:17.146Z,56.49
2018-12-22T02:12:49.205Z,56.81
2018-12-22T02:15:21.708Z,58.95
2018-12-22T02:17:56.581Z,60.35
2018-12-22T02:20:28.877Z,62.44
2018-12-22T02:23:01.239Z,64.69
2018-12-22T02:25:33.405Z,66.27
2018-12-22T02:28:05.505Z,65.45
2018-12-22T02:31:19.496Z,67.69
2018-12-22T02:33:51.483Z,69.46
2018-12-22T02:36:23.568Z,71.40
2018-12-22T02:38:55.955Z,71.59
2018-12-22T02:41:28.392Z,71.57
2018-12-22T02:44:00.527Z,71.93
2018-12-22T02:46:32.676Z,71.20
2018-12-22T02:49:04.195Z,71.10
2018-12-22T02:51:36.373Z,70.75
2018-12-22T02:54:08.506Z,71.08
2018-12-22T02:56:41.008Z,71.11
2018-12-22T02:59:13.155Z,71.76
2018-12-22T03:01:45.273Z,71.03
2018-12-22T03:04:15.551Z,70.92
2018-12-22T03:06:45.795Z,71.45
2018-12-22T03:09:18.144Z,70.92
2018-12-22T03:11:48.626Z,70.78
2018-12-22T03:14:21.043Z,71.81
2018-12-22T03:16:53.308Z,73.52
2018-12-22T03:19:25.403Z,74.95
2018-12-22T03:21:57.654Z,76.47
2018-12-22T03:24:27.668Z,76.76
2018-12-22T03:27:00.083Z,77.28
2018-12-22T03:29:30.144Z,77.68
2018-12-22T03:32:04.822Z,77.11
2018-12-22T03:34:37.088Z,76.53
2018-12-22T03:37:09.393Z,76.78
2018-12-22T03:39:41.934Z,76.57
2018-12-22T03:42:14.389Z,75.96
2018-12-22T03:44:46.566Z,75.60
2018-12-22T03:47:36.442Z,75.40
2018-12-22T03:50:11.248Z,74.91
2018-12-22T03:52:43.685Z,75.98
2018-12-22T03:55:15.807Z,76.24
2018-12-22T03:57:48.179Z,77.30
2018-12-22T04:00:20.469Z,77.49
2018-12-22T04:02:53.004Z,78.05
2018-12-22T04:05:25.189Z,78.37
2018-12-22T04:07:57.419Z,78.47
2018-12-22T04:10:29.608Z,78.45
2018-12-22T04:13:01.876Z,78.44
2018-12-22T04:15:33.985Z,79.11
2018-12-22T04:18:05.867Z,79.70
2018-12-22T04:20:37.952Z,80.09
2018-12-22T04:23:10.334Z,80.10
2018-12-22T04:25:42.578Z,80.24
2018-12-22T04:28:13.051Z,80.64
2018-12-22T04:30:43.417Z,80.73
2018-12-22T04:33:15.689Z,80.77
2018-12-22T04:35:47.854Z,80.47
2018-12-22T04:38:21.230Z,80.69
2018-12-22T04:40:53.552Z,80.82
2018-12-22T04:43:25.684Z,80.66
2018-12-22T04:46:00.234Z,80.95
2018-12-22T04:48:31.985Z,80.77
2018-12-22T04:51:03.964Z,80.68
2018-12-22T04:53:36.136Z,80.13
2018-12-22T04:56:08.111Z,80.24
2018-12-22T04:58:40.336Z,80.36
2018-12-22T05:01:14.989Z,79.84
2018-12-22T05:06:38.480Z,78.95
2018-12-22T05:09:10.834Z,79.11
2018-12-22T05:11:43.241Z,79.09
2018-12-22T05:14:15.294Z,78.95
2018-12-22T05:16:47.587Z,78.66
2018-12-22T05:19:19.696Z,78.46
2018-12-22T05:21:51.944Z,78.47
2018-12-22T05:24:24.203Z,78.72
2018-12-22T05:26:55.828Z,78.85
2018-12-22T05:29:30.324Z,78.55
2018-12-22T05:32:02.214Z,78.19
2018-12-22T05:34:34.631Z,78.31
2018-12-22T05:37:06.795Z,77.84
2018-12-22T05:39:39.045Z,77.92
2018-12-22T05:42:09.806Z,78.24
2018-12-22T05:44:41.733Z,77.53
2018-12-22T05:47:13.899Z,78.03
2018-12-22T05:49:46.052Z,77.63
2018-12-22T05:52:18.431Z,77.87
2018-12-22T05:54:50.438Z,77.42
2018-12-22T05:57:22.749Z,77.67
2018-12-22T06:00:00.386Z,77.40
2018-12-22T06:02:29.426Z,77.94
2018-12-22T06:05:01.519Z,77.57
2018-12-22T06:07:33.763Z,77.68
2018-12-22T06:10:06.211Z,77.34
2018-12-22T06:12:37.888Z,77.68
2018-12-22T06:15:10.388Z,77.89
2018-12-22T06:17:42.363Z,77.64
2018-12-22T06:20:14.594Z,77.42
2018-12-22T06:22:44.772Z,77.29
2018-12-22T06:25:16.990Z,77.03
2018-12-22T06:27:49.361Z,77.02
2018-12-22T06:30:21.798Z,76.68
2018-12-22T06:32:52.046Z,75.99
2018-12-22T06:35:22.161Z,76.05
2018-12-22T06:37:54.629Z,76.12
2018-12-22T06:40:26.505Z,76.17
2018-12-22T06:42:56.788Z,75.64
2018-12-22T06:45:28.916Z,75.85
2018-12-22T06:48:01.054Z,75.52
2018-12-22T06:50:33.362Z,75.72
2018-12-22T06:53:05.860Z,75.29
2018-12-22T06:55:38.489Z,75.17
2018-12-22T06:58:10.172Z,75.58
2018-12-22T07:00:42.404Z,75.04
2018-12-22T07:03:14.761Z,74.71
2018-12-22T07:05:46.958Z,74.34
2018-12-22T07:08:17.416Z,73.94
2018-12-22T07:10:48.968Z,74.06
2018-12-22T07:13:21.225Z,73.24
2018-12-22T07:15:53.476Z,73.61
2018-12-22T07:18:25.408Z,73.88
2018-12-22T07:20:55.617Z,73.47
2018-12-22T07:23:28.030Z,73.56
2018-12-22T07:26:00.955Z,73.38
2018-12-22T07:28:31.109Z,73.87
2018-12-22T07:31:05.413Z,73.05
2018-12-22T07:33:37.773Z,73.09
2018-12-22T07:36:10.238Z,72.89
2018-12-22T07:38:45.998Z,73.33
2018-12-22T07:41:17.503Z,73.40
2018-12-22T07:43:49.074Z,73.63
2018-12-22T07:46:21.290Z,74.56
2018-12-22T07:48:53.398Z,74.79
2018-12-22T07:51:25.544Z,75.36
2018-12-22T07:54:00.104Z,76.57
2018-12-22T07:56:32.142Z,77.10
2018-12-22T07:59:04.544Z,77.75
2018-12-22T08:01:36.550Z,77.53
2018-12-22T08:04:08.964Z,77.99
2018-12-22T08:06:41.129Z,78.77
2018-12-22T08:09:13.610Z,78.78
2018-12-22T08:11:43.873Z,78.80
2018-12-22T08:14:14.160Z,79.07
2018-12-22T08:16:45.753Z,79.23
2018-12-22T08:19:15.925Z,79.83
2018-12-22T08:21:48.073Z,79.95
2018-12-22T08:24:20.469Z,80.45
2018-12-22T08:26:52.664Z,80.65
2018-12-22T08:29:24.893Z,81.39
2018-12-22T08:31:59.400Z,81.50
2018-12-22T08:34:31.375Z,81.60
2018-12-22T08:37:05.817Z,82.00
2018-12-22T08:39:37.319Z,82.48
2018-12-22T08:42:09.696Z,82.48
2018-12-22T08:44:42.892Z,82.80
2018-12-22T08:47:14.640Z,83.12
2018-12-22T08:49:46.620Z,83.40
2018-12-22T08:52:16.784Z,83.69
2018-12-22T08:54:49.121Z,83.76
2018-12-22T08:57:21.318Z,83.50
2018-12-22T08:59:54.271Z,83.39
2018-12-22T09:02:26.805Z,83.61
2018-12-22T09:04:59.320Z,84.03
2018-12-22T09:07:29.473Z,83.62
2018-12-22T09:10:01.710Z,83.59
2018-12-22T09:12:33.644Z,84.33
2018-12-22T09:15:09.199Z,84.33
2018-12-22T09:17:41.751Z,84.42
2018-12-22T09:20:13.705Z,84.76
2018-12-22T09:22:46.116Z,84.70
2018-12-22T09:25:18.300Z,84.70
2018-12-22T09:27:50.467Z,84.95
2018-12-22T09:30:20.449Z,84.62
2018-12-22T09:32:50.967Z,84.99
2018-12-22T09:35:23.360Z,84.29
2018-12-22T09:37:55.456Z,84.85
2018-12-22T09:40:27.525Z,84.32
2018-12-22T09:42:59.780Z,84.50
2018-12-22T09:45:32.844Z,84.92
2018-12-22T09:48:03.231Z,84.60
2018-12-22T09:50:35.310Z,84.60
2018-12-22T09:53:07.597Z,84.67
2018-12-22T09:55:39.802Z,84.33
2018-12-22T09:58:11.797Z,83.91
2018-12-22T10:00:43.925Z,84.64
2018-12-22T10:03:15.766Z,84.14
2018-12-22T10:05:47.330Z,83.94
2018-12-22T10:08:19.892Z,83.98
2018-12-22T10:13:42.091Z,84.37
2018-12-22T10:16:12.556Z,84.01
2018-12-22T10:18:47.192Z,84.46
2018-12-22T10:21:18.846Z,84.54
2018-12-22T10:23:51.270Z,84.29
2018-12-22T10:26:23.315Z,84.48
2018-12-22T10:28:55.809Z,84.81
2018-12-22T10:31:27.788Z,84.59
2018-12-22T10:34:00.006Z,84.85
2018-12-22T10:36:32.146Z,84.57
2018-12-22T10:39:06.113Z,84.57
2018-12-22T10:41:37.727Z,84.28
2018-12-22T10:44:09.428Z,83.84
2018-12-22T10:46:42.397Z,84.26
2018-12-22T10:49:14.384Z,84.54
2018-12-22T10:51:47.001Z,85.01
2018-12-22T10:54:21.155Z,85.13
2018-12-22T10:56:53.469Z,85.00
2018-12-22T10:59:25.594Z,84.39
2018-12-22T11:01:57.851Z,84.20
2018-12-22T11:04:29.524Z,83.42
2018-12-22T11:06:59.852Z,83.50
2018-12-22T11:09:32.041Z,83.02
2018-12-22T11:12:04.461Z,82.82
2018-12-22T11:14:36.395Z,82.85
2018-12-22T11:17:09.025Z,83.31
2018-12-22T11:19:42.679Z,81.68
2018-12-22T11:22:15.073Z,82.18
2018-12-22T11:24:47.262Z,81.63
2018-12-22T11:27:19.624Z,81.30
2018-12-22T11:29:51.688Z,80.90
2018-12-22T11:32:23.845Z,81.62
2018-12-22T11:34:55.828Z,81.35
2018-12-22T11:37:27.882Z,81.46
2018-12-22T11:40:00.304Z,80.89
2018-12-22T11:42:32.350Z,80.80
2018-12-22T11:45:04.784Z,81.49
2018-12-22T11:47:43.761Z,81.54
2018-12-22T11:50:20.130Z,81.40
2018-12-22T11:52:52.041Z,81.18
2018-12-22T11:55:26.326Z,81.15
2018-12-22T11:57:57.971Z,80.80
2018-12-22T12:00:30.311Z,81.45
2018-12-22T12:03:02.324Z,80.98
2018-12-22T12:05:34.832Z,79.86
2018-12-22T12:08:09.364Z,81.06
2018-12-22T12:10:41.953Z,80.74
2018-12-22T12:13:13.892Z,80.53
2018-12-22T12:15:50.470Z,80.73
2018-12-22T12:18:28.023Z,80.39
2018-12-22T12:21:08.530Z,81.23
2018-12-22T12:23:48.038Z,81.32
2018-12-22T12:26:21.989Z,81.03
2018-12-22T12:28:54.902Z,81.18
2018-12-22T12:31:27.540Z,80.75
2018-12-22T12:33:59.670Z,81.15
2018-12-22T12:36:31.891Z,81.57
2018-12-22T12:39:06.928Z,81.39
2018-12-22T12:41:38.487Z,82.06
2018-12-22T12:44:10.727Z,82.03
2018-12-22T12:46:46.581Z,81.75
2018-12-22T12:49:19.865Z,82.22
2018-12-22T12:51:52.042Z,81.46
2018-12-22T12:54:24.705Z,81.36
2018-12-22T12:56:58.618Z,81.33
2018-12-22T12:59:30.911Z,81.74
2018-12-22T13:02:04.871Z,82.07
2018-12-22T13:04:36.909Z,81.06
2018-12-22T13:07:09.063Z,81.93
2018-12-22T13:09:43.247Z,81.50
2018-12-22T13:12:19.327Z,80.50
2018-12-22T13:14:52.245Z,80.52
2018-12-22T13:17:24.473Z,80.60
2018-12-22T13:19:56.506Z,80.90
2018-12-22T13:22:28.153Z,80.61
2018-12-22T13:24:58.500Z,80.61
2018-12-22T13:27:31.269Z,80.61
2018-12-22T13:30:04.555Z,80.16
2018-12-22T13:32:37.053Z,80.47
2018-12-22T13:35:09.678Z,80.21
2018-12-22T13:37:42.067Z,80.15
2018-12-22T13:40:15.553Z,80.35
2018-12-22T13:42:49.305Z,80.02
2018-12-22T13:45:21.392Z,80.14
2018-12-22T13:47:54.523Z,80.31
2018-12-22T13:50:26.746Z,80.12
2018-12-22T13:53:00.562Z,80.14
2018-12-22T13:55:32.920Z,79.54
2018-12-22T13:58:04.900Z,79.92
2018-12-22T14:00:42.160Z,79.99
2018-12-22T14:03:18.284Z,79.47
2018-12-22T14:05:50.730Z,79.60
2018-12-22T14:08:20.804Z,79.87
2018-12-22T14:10:53.087Z,80.09
2018-12-22T14:13:23.457Z,80.10
2018-12-22T14:16:00.140Z,80.59
2018-12-22T14:18:37.073Z,80.50
2018-12-22T14:21:09.690Z,80.02
2018-12-22T14:23:51.127Z,79.84
2018-12-22T14:26:22.956Z,79.67
2018-12-22T14:28:55.184Z,79.46
2018-12-22T14:31:27.508Z,79.34
2018-12-22T14:34:02.457Z,79.64
2018-12-22T14:36:34.490Z,79.89
2018-12-22T14:56:39.450Z,79.84
2018-12-22T14:59:13.703Z,80.11
2018-12-22T15:01:51.214Z,80.29
2018-12-22T15:04:24.395Z,79.69
2018-12-22T15:06:55.989Z,80.04
2018-12-22T15:09:28.603Z,79.90
2018-12-22T15:12:01.581Z,80.08
2018-12-22T15:14:37.110Z,79.84
2018-12-22T15:23:04.250Z,79.34
2018-12-22T15:25:36.568Z,79.94
2018-12-22T15:28:08.735Z,79.59
2018-12-22T15:30:41.319Z,79.93
2018-12-22T15:33:13.449Z,79.58
2018-12-22T15:35:45.534Z,79.78
2018-12-22T15:38:18.042Z,79.91
2018-12-22T15:40:50.900Z,79.64
2018-12-22T15:43:22.834Z,79.61
2018-12-22T15:45:55.016Z,79.90
2018-12-22T15:48:27.135Z,80.37
2018-12-22T15:50:58.569Z,80.12
2018-12-22T15:53:30.480Z,80.70
2018-12-22T15:56:03.059Z,80.81
2018-12-22T15:58:33.189Z,80.77
2018-12-22T16:01:07.669Z,81.59
2018-12-22T16:03:39.585Z,80.81
2018-12-22T16:06:11.720Z,80.86
2018-12-22T16:08:43.716Z,80.76
2018-12-22T16:11:15.972Z,80.46
2018-12-22T16:13:48.211Z,80.94
2018-12-22T16:16:21.029Z,80.42
2018-12-22T16:18:52.976Z,80.40
2018-12-22T16:21:24.997Z,80.13
2018-12-22T16:23:57.357Z,80.55
2018-12-22T16:26:29.572Z,80.08
2018-12-22T16:29:14.088Z,80.10
2018-12-22T16:31:48.046Z,80.02
2018-12-22T16:34:19.924Z,79.76
2018-12-22T16:36:53.229Z,80.08
2018-12-22T16:39:25.555Z,79.88
2018-12-22T16:42:00.337Z,79.52
2018-12-22T16:44:31.995Z,79.35
2018-12-22T16:47:05.688Z,79.46
2018-12-22T16:49:38.423Z,79.45
2018-12-22T16:52:11.815Z,79.72
2018-12-22T16:54:45.014Z,79.40
2018-12-22T16:57:18.132Z,79.69
2018-12-22T16:59:52.095Z,79.67
2018-12-22T17:02:59.942Z,79.11
2018-12-22T17:05:33.542Z,79.23
2018-12-22T17:08:06.761Z,79.53
2018-12-22T17:10:42.693Z,79.58
2018-12-22T17:13:18.212Z,79.63
2018-12-22T17:15:56.809Z,79.90
2018-12-22T17:18:30.965Z,79.63
2018-12-22T17:21:43.582Z,79.83
2018-12-22T17:24:54.666Z,79.98
2018-12-22T17:27:28.195Z,80.58
2018-12-22T17:30:01.751Z,80.81
2018-12-22T17:32:39.087Z,81.41
2018-12-22T17:35:14.442Z,81.68
2018-12-22T17:37:47.585Z,81.97
2018-12-22T17:40:20.835Z,82.11
2018-12-22T17:42:54.068Z,82.00
2018-12-22T17:45:27.328Z,81.93
2018-12-22T17:47:59.972Z,81.78
2018-12-22T17:50:33.175Z,81.81
2018-12-22T17:53:09.041Z,81.82
2018-12-22T17:55:40.605Z,81.74
2018-12-22T17:58:13.476Z,81.64
2018-12-22T18:00:49.052Z,81.74
2018-12-22T18:03:27.523Z,81.97
2018-12-22T18:06:00.105Z,82.26
2018-12-22T18:08:32.842Z,82.90
2018-12-22T18:11:06.181Z,83.09
2018-12-22T18:13:39.328Z,83.07
2018-12-22T18:16:12.752Z,83.04
2018-12-22T18:18:46.154Z,82.90
2018-12-22T18:21:19.410Z,82.84
2018-12-22T18:23:54.806Z,82.81
2018-12-22T18:26:26.031Z,82.35
2018-12-22T18:28:59.239Z,82.67
2018-12-22T18:31:32.585Z,82.32
2018-12-22T18:34:05.930Z,80.72
2018-12-22T18:36:39.276Z,81.06
2018-12-22T18:39:12.742Z,80.94
2018-12-22T18:41:47.562Z,80.94
2018-12-22T18:44:20.156Z,80.66
2018-12-22T18:46:53.568Z,80.69
2018-12-22T18:49:26.482Z,80.06
2018-12-22T18:52:00.094Z,79.61
2018-12-22T18:54:33.169Z,79.85
2018-12-22T18:57:06.324Z,80.17
2018-12-22T18:59:41.382Z,79.70
2018-12-22T19:02:15.455Z,80.31
2018-12-22T19:07:20.254Z,79.96
2018-12-22T19:09:53.720Z,79.71
2018-12-22T19:12:29.106Z,80.15
2018-12-22T19:15:02.493Z,79.92
2018-12-22T19:17:35.301Z,79.82
2018-12-22T19:20:15.037Z,79.86
2018-12-22T19:22:48.286Z,79.67
2018-12-22T19:25:21.697Z,79.46
2018-12-22T19:27:54.852Z,79.05
2018-12-22T19:30:28.112Z,78.85
2018-12-22T19:33:01.340Z,78.57
2018-12-22T19:35:34.516Z,78.40
2018-12-22T19:38:07.567Z,78.66
2018-12-22T19:40:40.879Z,78.66
2018-12-22T19:43:14.049Z,78.62
2018-12-22T19:45:47.089Z,78.51
2018-12-22T19:48:20.551Z,78.99
2018-12-22T19:50:55.611Z,78.73
2018-12-22T19:53:28.884Z,79.31
2018-12-22T19:56:02.043Z,79.51
2018-12-22T19:58:35.703Z,79.10
2018-12-22T20:01:09.151Z,79.33
2018-12-22T20:03:42.434Z,79.22
2018-12-22T20:06:17.351Z,79.43
2018-12-22T20:08:50.425Z,79.21
2018-12-22T20:11:23.865Z,79.98
2018-12-22T20:13:56.896Z,80.35
2018-12-22T20:16:29.924Z,80.34
2018-12-22T20:19:03.351Z,80.26
2018-12-22T20:21:38.716Z,79.77
2018-12-22T20:24:12.054Z,79.86
2018-12-22T20:26:57.292Z,79.24
2018-12-22T20:29:30.494Z,78.95
2018-12-22T20:32:03.474Z,78.91
2018-12-22T20:34:36.581Z,78.80
2018-12-22T20:37:10.066Z,78.56
2018-12-22T20:39:42.895Z,78.57
2018-12-22T20:42:15.623Z,78.61
2018-12-22T20:44:48.725Z,79.07
2018-12-22T20:47:22.141Z,78.48
2018-12-22T20:49:55.431Z,78.60
2018-12-22T20:52:28.743Z,78.70
2018-12-22T20:55:01.635Z,78.68
2018-12-22T20:57:34.762Z,78.91
2018-12-22T21:00:08.373Z,79.02
2018-12-22T21:02:41.096Z,78.18
2018-12-22T21:05:14.258Z,78.04
2018-12-22T21:07:47.609Z,78.00
2018-12-22T21:10:21.485Z,78.13
2018-12-22T21:12:54.412Z,77.74
2018-12-22T21:15:29.068Z,77.28
2018-12-22T21:18:02.517Z,77.51
2018-12-22T21:20:35.763Z,76.53
2018-12-22T21:23:08.593Z,76.11
2018-12-22T21:25:41.838Z,76.37
2018-12-22T21:28:16.588Z,75.77
2018-12-22T21:30:49.821Z,75.67
2018-12-22T21:33:23.278Z,75.10
2018-12-22T21:35:58.884Z,74.77
2018-12-22T21:38:33.486Z,74.27
2018-12-22T21:41:06.799Z,73.77
2018-12-22T21:43:43.120Z,74.11
2018-12-22T21:46:16.606Z,74.05
2018-12-22T21:48:49.987Z,74.61
2018-12-22T21:51:23.921Z,75.17
2018-12-22T21:53:57.084Z,75.10
2018-12-22T21:56:30.386Z,74.88
2018-12-22T21:59:03.648Z,75.33
2018-12-22T22:01:36.921Z,74.85
2018-12-22T22:04:18.182Z,74.28
2018-12-22T22:06:55.653Z,74.97
2018-12-22T22:09:28.876Z,74.93
2018-12-22T22:12:02.460Z,75.02
2018-12-22T22:14:35.551Z,74.99
2018-12-22T22:17:09.966Z,75.40
2018-12-22T22:19:42.903Z,75.19
2018-12-22T22:22:16.563Z,75.04
2018-12-22T22:24:50.058Z,74.96
2018-12-22T22:30:21.023Z,74.50
2018-12-22T22:32:52.557Z,73.75
2018-12-22T22:35:25.634Z,73.99
2018-12-22T22:37:59.006Z,74.08
2018-12-22T22:40:32.157Z,73.45
2018-12-22T22:43:05.532Z,73.34
2018-12-22T22:45:39.503Z,73.32
2018-12-22T22:48:16.890Z,72.88
2018-12-22T22:50:52.935Z,72.32
2018-12-22T22:53:27.610Z,72.22
2018-12-22T22:56:03.070Z,71.91
2018-12-22T22:58:35.878Z,71.55
2018-12-22T23:01:09.306Z,71.46
2018-12-22T23:03:42.683Z,70.44
2018-12-22T23:06:22.752Z,70.60
2018-12-22T23:08:56.383Z,70.65
2018-12-22T23:11:29.425Z,70.57
2018-12-22T23:14:07.006Z,70.52
2018-12-22T23:16:42.732Z,70.74
2018-12-22T23:19:15.861Z,71.05
2018-12-22T23:21:49.063Z,70.60
2018-12-22T23:24:21.944Z,70.79
2018-12-22T23:26:57.368Z,70.78
2018-12-22T23:29:30.501Z,71.26
2018-12-22T23:32:03.615Z,70.52
2018-12-22T23:34:37.606Z,70.82
2018-12-22T23:37:11.112Z,70.42
2018-12-22T23:39:46.383Z,71.11
2018-12-22T23:42:20.000Z,71.01
2018-12-22T23:44:55.749Z,70.50
2018-12-22T23:47:28.612Z,70.43
2018-12-22T23:50:02.181Z,70.52
2018-12-22T23:52:36.106Z,70.89
2018-12-22T23:55:09.682Z,70.07
2018-12-22T23:57:43.729Z,70.67
